createdAt,value
2018-12-22T00:01:48.296Z,99745.05
2018-12-22T00:04:52.607Z,99756.57
2018-12-22T00:07:56.831Z,99754.09
2018-12-22T00:11:01.031Z,99760.51
2018-12-22T00:14:05.379Z,99773.61
2018-12-22T00:17:09.674Z,99777.95
2018-12-22T00:20:13.960Z,99782.61
2018-12-22T00:23:18.158Z,99798.67
2018-12-22T00:26:22.463Z,99810.00
2018-12-22T00:29:26.744Z,99823.98
2018-12-22T00:32:31.059Z,99834.98
2018-12-22T00:35:35.340Z,99835.20
2018-12-22T00:38:39.564Z,99835.85
2018-12-22T00:41:43.848Z,99843.80
2018-12-22T00:44:48.065Z,99846.49
2018-12-22T00:47:52.343Z,99857.67
2018-12-22T00:50:57.386Z,99862.64
2018-12-22T00:54:01.618Z,99867.30
2018-12-22T00:57:05.935Z,99874.25
2018-12-22T01:00:11.024Z,99886.45
2018-12-22T01:03:15.299Z,99891.55
2018-12-22T01:06:20.071Z,99895.89
2018-12-22T01:09:24.364Z,99906.06
2018-12-22T01:12:28.756Z,99905.74
2018-12-22T01:15:33.191Z,99917.25
2018-12-22T01:18:37.486Z,99919.22
2018-12-22T01:21:41.716Z,99933.64
2018-12-22T01:24:45.999Z,99940.37
2018-12-22T01:27:50.227Z,99933.50
2018-12-22T01:30:54.533Z,99941.27
2018-12-22T01:33:58.907Z,99947.31
2018-12-22T01:37:03.131Z,99949.17
2018-12-22T01:40:07.760Z,99964.31
2018-12-22T01:43:11.967Z,99965.98
2018-12-22T01:46:16.243Z,99976.25
2018-12-22T01:49:20.657Z,99979.80
2018-12-22T01:52:25.024Z,99984.36
2018-12-22T01:55:29.279Z,99990.19
2018-12-22T01:58:33.506Z,99987.70
2018-12-22T02:01:37.763Z,99996.08
2018-12-22T02:04:42.088Z,100002.72
2018-12-22T02:07:46.335Z,100007.91
2018-12-22T02:10:50.559Z,100016.72
2018-12-22T02:13:54.779Z,100032.47
2018-12-22T02:16:59.003Z,100038.91
2018-12-22T02:20:03.307Z,100044.80
2018-12-22T02:23:07.623Z,100050.31
2018-12-22T02:26:11.851Z,100060.76
2018-12-22T02:29:16.083Z,100063.78
2018-12-22T02:32:20.337Z,100065.43
2018-12-22T02:35:24.575Z,100069.98
2018-12-22T02:38:28.802Z,100072.89
2018-12-22T02:41:33.016Z,100081.51
2018-12-22T02:44:37.236Z,100077.88
2018-12-22T02:47:41.448Z,100083.88
2018-12-22T02:50:45.655Z,100085.13
2018-12-22T02:53:49.880Z,100086.98
2018-12-22T02:56:54.096Z,100099.11
2018-12-22T02:59:58.419Z,100096.20
2018-12-22T03:03:02.638Z,100105.84
2018-12-22T03:06:07.027Z,100101.51
2018-12-22T03:09:11.255Z,100093.52
2018-12-22T03:12:15.571Z,100093.09
2018-12-22T03:15:19.849Z,100098.61
2018-12-22T03:18:24.125Z,100087.50
2018-12-22T03:21:28.430Z,100083.99
2018-12-22T03:24:38.924Z,100088.45
2018-12-22T03:27:43.141Z,100096.62
2018-12-22T03:30:47.392Z,100110.82
2018-12-22T03:33:51.607Z,100103.88
2018-12-22T03:36:56.020Z,100103.36
2018-12-22T03:40:00.277Z,100101.39
2018-12-22T03:43:04.601Z,100107.73
2018-12-22T03:46:08.838Z,100117.45
2018-12-22T03:49:13.070Z,100121.50
2018-12-22T03:52:17.283Z,100123.48
2018-12-22T03:55:21.539Z,100124.83
2018-12-22T03:58:25.764Z,100124.41
2018-12-22T04:01:30.010Z,100124.73
2018-12-22T04:04:34.319Z,100133.95
2018-12-22T04:07:38.525Z,100132.61
2018-12-22T04:10:42.759Z,100128.77
2018-12-22T04:13:47.023Z,100121.70
2018-12-22T04:16:51.345Z,100132.38
2018-12-22T04:19:55.723Z,100136.63
2018-12-22T04:23:00.021Z,100154.63
2018-12-22T04:26:04.459Z,100151.21
2018-12-22T04:29:08.746Z,100151.94
2018-12-22T04:32:13.136Z,100148.31
2018-12-22T04:35:17.416Z,100155.05
2018-12-22T04:38:21.686Z,100158.56
2018-12-22T04:41:26.045Z,100174.42
2018-12-22T04:44:30.305Z,100171.72
2018-12-22T04:47:34.588Z,100189.33
2018-12-22T04:50:38.898Z,100185.59
2018-12-22T04:53:43.201Z,100188.70
2018-12-22T04:56:47.518Z,100202.16
2018-12-22T04:59:51.760Z,100204.31
2018-12-22T05:02:56.015Z,100210.24
2018-12-22T05:06:00.383Z,100207.42
2018-12-22T05:09:06.605Z,100208.16
2018-12-22T05:12:10.959Z,100213.01
2018-12-22T05:15:15.208Z,100222.12
2018-12-22T05:18:19.473Z,100225.23
2018-12-22T05:21:23.715Z,100231.75
2018-12-22T05:24:27.957Z,100227.52
2018-12-22T05:27:32.191Z,100235.59
2018-12-22T05:30:36.462Z,100242.12
2018-12-22T05:33:40.813Z,100238.08
2018-12-22T05:36:45.134Z,100242.22
2018-12-22T05:39:49.378Z,100246.46
2018-12-22T05:42:53.742Z,100251.54
2018-12-22T05:45:58.131Z,100251.75
2018-12-22T05:49:02.472Z,100259.62
2018-12-22T05:52:06.831Z,100268.10
2018-12-22T05:55:11.184Z,100274.19
2018-12-22T05:58:15.405Z,100279.91
2018-12-22T06:01:19.780Z,100274.83
2018-12-22T06:04:24.044Z,100285.50
2018-12-22T06:07:28.266Z,100278.00
2018-12-22T06:10:32.532Z,100281.93
2018-12-22T06:13:36.788Z,100292.80
2018-12-22T06:16:41.031Z,100299.23
2018-12-22T06:19:45.263Z,100299.93
2018-12-22T06:22:49.517Z,100302.63
2018-12-22T06:25:53.764Z,100301.62
2018-12-22T06:28:58.051Z,100317.97
2018-12-22T06:32:02.466Z,100317.33
2018-12-22T06:35:06.959Z,100323.21
2018-12-22T06:38:11.271Z,100328.09
2018-12-22T06:41:16.018Z,100330.78
2018-12-22T06:44:20.281Z,100333.28
2018-12-22T06:47:24.532Z,100333.28
2018-12-22T06:50:28.771Z,100339.30
2018-12-22T06:53:33.059Z,100342.80
2018-12-22T06:56:37.427Z,100348.59
2018-12-22T06:59:41.991Z,100360.09
2018-12-22T07:02:46.247Z,100361.30
2018-12-22T07:05:50.488Z,100363.69
2018-12-22T07:08:54.826Z,100365.23
2018-12-22T07:11:59.068Z,100374.00
2018-12-22T07:15:03.566Z,100384.47
2018-12-22T07:18:07.818Z,100387.66
2018-12-22T07:21:12.119Z,100396.44
2018-12-22T07:24:16.354Z,100395.63
2018-12-22T07:27:20.599Z,100402.66
2018-12-22T07:30:26.309Z,100404.01
2018-12-22T07:33:31.016Z,100403.70
2018-12-22T07:36:35.215Z,100412.92
2018-12-22T07:39:39.503Z,100414.77
2018-12-22T07:42:43.690Z,100428.23
2018-12-22T07:45:47.964Z,100432.97
2018-12-22T07:48:52.248Z,100439.19
2018-12-22T07:51:56.474Z,100439.08
2018-12-22T07:55:00.720Z,100445.81
2018-12-22T07:58:05.208Z,100448.16
2018-12-22T08:01:09.461Z,100454.08
2018-12-22T08:04:13.771Z,100452.73
2018-12-22T08:07:18.398Z,100466.38
2018-12-22T08:10:22.699Z,100469.38
2018-12-22T08:13:26.951Z,100461.56
2018-12-22T08:16:31.268Z,100475.02
2018-12-22T08:19:35.671Z,100477.37
2018-12-22T08:22:39.935Z,100484.83
2018-12-22T08:25:44.299Z,100484.95
2018-12-22T08:28:48.654Z,100493.33
2018-12-22T08:31:53.027Z,100503.40
2018-12-22T08:34:57.283Z,100502.50
2018-12-22T08:38:01.594Z,100503.07
2018-12-22T08:41:05.996Z,100515.25
2018-12-22T08:44:10.346Z,100520.62
2018-12-22T08:47:14.571Z,100520.55
2018-12-22T08:50:18.856Z,100533.70
2018-12-22T08:53:23.203Z,100536.59
2018-12-22T08:56:27.605Z,100546.77
2018-12-22T08:59:31.880Z,100545.42
2018-12-22T09:02:36.227Z,100549.16
2018-12-22T09:05:40.530Z,100551.52
2018-12-22T09:08:44.811Z,100558.58
2018-12-22T09:11:49.056Z,100560.44
2018-12-22T09:14:53.299Z,100562.09
2018-12-22T09:17:57.680Z,100576.09
2018-12-22T09:21:01.906Z,100579.00
2018-12-22T09:24:06.116Z,100587.66
2018-12-22T09:27:10.364Z,100586.32
2018-12-22T09:30:14.685Z,100601.20
2018-12-22T09:33:19.008Z,100608.31
2018-12-22T09:36:23.463Z,100620.82
2018-12-22T09:39:27.711Z,100626.40
2018-12-22T09:42:32.003Z,100626.78
2018-12-22T09:45:36.203Z,100630.17
2018-12-22T09:48:40.562Z,100634.02
2018-12-22T09:51:44.925Z,100635.83
2018-12-22T09:54:49.209Z,100639.17
2018-12-22T09:57:53.400Z,100644.02
2018-12-22T10:00:57.616Z,100639.59
2018-12-22T10:04:01.808Z,100646.67
2018-12-22T10:07:06.117Z,100651.91
2018-12-22T10:10:15.635Z,100650.05
2018-12-22T10:13:19.987Z,100646.86
2018-12-22T10:16:24.177Z,100644.67
2018-12-22T10:19:28.497Z,100658.78
2018-12-22T10:26:21.356Z,100662.09
2018-12-22T10:29:29.675Z,100666.14
2018-12-22T10:32:34.039Z,100666.48
2018-12-22T10:35:38.270Z,100672.33
2018-12-22T10:38:42.617Z,100676.17
2018-12-22T10:41:46.836Z,100678.48
2018-12-22T10:44:51.151Z,100684.67
2018-12-22T10:47:55.348Z,100698.14
2018-12-22T10:50:59.605Z,100697.84
2018-12-22T10:54:03.975Z,100699.64
2018-12-22T10:57:08.180Z,100701.95
2018-12-22T11:00:16.217Z,100711.30
2018-12-22T11:03:20.411Z,100708.61
2018-12-22T11:06:24.763Z,100712.19
2018-12-22T11:09:29.063Z,100711.87
2018-12-22T11:12:33.300Z,100704.06
2018-12-22T11:15:37.553Z,100707.06
2018-12-22T11:18:51.355Z,100703.75
2018-12-22T11:21:59.539Z,100696.62
2018-12-22T11:25:09.697Z,100699.44
2018-12-22T11:28:23.700Z,100711.17
2018-12-22T11:31:34.938Z,100723.95
2018-12-22T11:34:34.258Z,100723.30
2018-12-22T11:37:38.463Z,100724.64
2018-12-22T11:40:42.761Z,100719.79
2018-12-22T11:43:47.081Z,100730.03
2018-12-22T11:46:51.704Z,100721.84
2018-12-22T11:49:56.172Z,100717.34
2018-12-22T11:53:00.455Z,100716.33
2018-12-22T11:56:10.726Z,100709.41
2018-12-22T11:59:14.995Z,100723.84
2018-12-22T12:02:19.186Z,100738.77
2018-12-22T12:05:23.522Z,100749.28
2018-12-22T12:08:27.803Z,100752.70
2018-12-22T12:11:32.012Z,100753.13
2018-12-22T12:14:36.874Z,100760.14
2018-12-22T12:18:12.834Z,100764.95
2018-12-22T12:21:17.030Z,100765.91
2018-12-22T12:24:21.386Z,100770.91
2018-12-22T12:27:25.611Z,100776.11
2018-12-22T12:30:29.838Z,100784.34
2018-12-22T12:33:34.152Z,100789.01
2018-12-22T12:36:38.545Z,100787.47
2018-12-22T12:39:42.792Z,100794.66
2018-12-22T12:42:47.022Z,100791.97
2018-12-22T12:45:51.272Z,100802.63
2018-12-22T12:48:55.636Z,100806.02
2018-12-22T12:52:00.012Z,100810.07
2018-12-22T12:55:04.514Z,100809.23
2018-12-22T12:58:08.725Z,100815.16
2018-12-22T13:01:12.995Z,100821.05
2018-12-22T13:04:17.307Z,100819.20
2018-12-22T13:07:21.507Z,100821.70
2018-12-22T13:10:25.795Z,100832.79
2018-12-22T13:13:42.392Z,100834.14
2018-12-22T13:16:46.707Z,100829.44
2018-12-22T13:19:52.636Z,100835.17
2018-12-22T13:22:56.989Z,100834.83
2018-12-22T13:26:01.361Z,100836.72
2018-12-22T13:29:05.611Z,100837.72
2018-12-22T13:32:10.337Z,100845.81
2018-12-22T13:35:14.796Z,100859.09
2018-12-22T13:38:19.024Z,100856.20
2018-12-22T13:41:23.251Z,100858.28
2018-12-22T13:44:27.665Z,100864.05
2018-12-22T13:47:31.886Z,100862.52
2018-12-22T13:50:36.209Z,100857.75
2018-12-22T13:53:40.576Z,100870.53
2018-12-22T13:56:44.879Z,100875.23
2018-12-22T13:59:49.175Z,100884.47
2018-12-22T14:02:53.395Z,100886.67
2018-12-22T14:05:57.693Z,100889.02
2018-12-22T14:09:01.978Z,100898.84
2018-12-22T14:12:06.391Z,100904.42
2018-12-22T14:15:15.666Z,100906.99
2018-12-22T14:18:38.711Z,100903.95
2018-12-22T14:21:43.003Z,100909.88
2018-12-22T14:24:51.256Z,100910.57
2018-12-22T14:27:55.606Z,100914.30
2018-12-22T14:30:59.917Z,100918.19
2018-12-22T14:34:10.930Z,100920.58
2018-12-22T14:37:15.157Z,100922.11
2018-12-22T14:40:19.487Z,100925.30
2018-12-22T14:43:23.827Z,100926.19
2018-12-22T14:46:28.136Z,100937.34
2018-12-22T14:49:32.352Z,100948.13
2018-12-22T14:52:36.632Z,100949.81
2018-12-22T14:55:40.832Z,100950.81
2018-12-22T14:58:45.032Z,100951.85
2018-12-22T15:01:54.251Z,100959.09
2018-12-22T15:04:58.471Z,100960.97
2018-12-22T15:08:02.815Z,100958.78
2018-12-22T15:11:07.116Z,100963.13
2018-12-22T15:14:11.359Z,100958.28
2018-12-22T15:17:15.563Z,100962.32
2018-12-22T15:20:23.932Z,100961.78
2018-12-22T15:23:28.143Z,100965.02
2018-12-22T15:26:32.440Z,100966.73
2018-12-22T15:29:36.755Z,100967.73
2018-12-22T15:32:44.550Z,100975.82
2018-12-22T15:35:47.528Z,100975.51
2018-12-22T15:38:51.816Z,100979.20
2018-12-22T15:41:56.050Z,100985.94
2018-12-22T15:45:00.462Z,100995.72
2018-12-22T15:48:04.775Z,101009.69
2018-12-22T15:51:09.068Z,101008.03
2018-12-22T15:54:13.393Z,101007.69
2018-12-22T15:57:17.593Z,101004.17
2018-12-22T16:00:21.959Z,101004.55
2018-12-22T16:03:26.347Z,101005.23
2018-12-22T16:06:30.792Z,101018.05
2018-12-22T16:09:35.019Z,101020.92
2018-12-22T16:12:39.310Z,101018.23
2018-12-22T16:15:43.610Z,101019.45
2018-12-22T16:18:47.839Z,101023.17
2018-12-22T16:21:52.241Z,101025.52
2018-12-22T16:24:56.445Z,101030.59
2018-12-22T16:28:12.205Z,101035.98
2018-12-22T16:31:16.427Z,101029.92
2018-12-22T16:34:20.727Z,101030.30
2018-12-22T16:37:24.949Z,101044.61
2018-12-22T16:40:29.196Z,101040.76
2018-12-22T16:43:33.490Z,101046.14
2018-12-22T16:46:37.886Z,101055.94
2018-12-22T16:49:42.083Z,101057.97
2018-12-22T16:52:46.313Z,101054.24
2018-12-22T16:55:50.621Z,101066.18
2018-12-22T16:58:59.284Z,101067.34
2018-12-22T17:03:13.476Z,101072.73
2018-12-22T17:06:17.791Z,101079.52
2018-12-22T17:09:22.015Z,101082.20
2018-12-22T17:12:26.251Z,101086.25
2018-12-22T17:15:30.468Z,101086.75
2018-12-22T17:18:34.856Z,101092.48
2018-12-22T17:21:53.550Z,101096.52
2018-12-22T17:25:05.354Z,101098.37
2018-12-22T17:28:09.656Z,101098.69
2018-12-22T17:31:13.999Z,101101.37
2018-12-22T17:34:18.297Z,101095.99
2018-12-22T17:37:22.531Z,101093.48
2018-12-22T17:40:26.731Z,101098.55
2018-12-22T17:43:31.496Z,101103.77
2018-12-22T17:46:35.723Z,101109.69
2018-12-22T17:49:39.967Z,101104.48
2018-12-22T17:52:44.250Z,101123.83
2018-12-22T17:55:48.575Z,101132.28
2018-12-22T17:58:52.870Z,101134.83
2018-12-22T18:01:57.147Z,101143.59
2018-12-22T18:05:01.335Z,101138.87
2018-12-22T18:08:05.707Z,101146.06
2018-12-22T18:11:10.054Z,101148.75
2018-12-22T18:14:14.469Z,101150.45
2018-12-22T18:17:18.677Z,101154.31
2018-12-22T18:20:23.061Z,101152.78
2018-12-22T18:23:27.373Z,101162.02
2018-12-22T18:26:31.639Z,101163.88
2018-12-22T18:29:35.875Z,101169.61
2018-12-22T18:32:40.277Z,101167.73
2018-12-22T18:35:44.608Z,101169.61
2018-12-22T18:38:48.839Z,101167.73
2018-12-22T18:41:53.080Z,101163.88
2018-12-22T18:44:57.361Z,101165.72
2018-12-22T18:48:01.676Z,101173.48
2018-12-22T18:51:05.930Z,101174.83
2018-12-22T18:54:10.151Z,101176.67
2018-12-22T18:57:14.395Z,101181.23
2018-12-22T19:00:21.487Z,101179.89
2018-12-22T19:03:25.781Z,101180.53
2018-12-22T19:06:30.075Z,101187.12
2018-12-22T19:09:37.012Z,101182.89
2018-12-22T19:12:41.219Z,101187.25
2018-12-22T19:15:45.423Z,101188.28
2018-12-22T19:18:49.695Z,101191.30
2018-12-22T19:21:54.065Z,101192.95
2018-12-22T19:24:58.272Z,101198.17
2018-12-22T19:28:02.496Z,101197.67
2018-12-22T19:31:06.793Z,101201.03
2018-12-22T19:34:11.036Z,101193.27
2018-12-22T19:37:15.203Z,101202.02
2018-12-22T19:40:19.489Z,101199.64
2018-12-22T19:43:23.768Z,101204.53
2018-12-22T19:46:27.966Z,101209.56
2018-12-22T19:49:32.171Z,101210.41
2018-12-22T19:52:36.355Z,101208.57
2018-12-22T19:55:40.568Z,101215.12
2018-12-22T19:58:44.739Z,101212.75
2018-12-22T20:01:48.947Z,101212.93
2018-12-22T20:04:53.151Z,101212.25
2018-12-22T20:07:57.360Z,101210.05
2018-12-22T20:11:01.635Z,101212.56
2018-12-22T20:14:05.892Z,101209.69
2018-12-22T20:17:10.083Z,101212.20
2018-12-22T20:20:14.397Z,101216.07
2018-12-22T20:23:18.617Z,101210.68
2018-12-22T20:26:22.939Z,101213.19
2018-12-22T20:29:27.127Z,101210.85
2018-12-22T20:32:31.435Z,101207.98
2018-12-22T20:35:35.776Z,101219.39
2018-12-22T20:38:40.725Z,101213.31
2018-12-22T20:41:45.136Z,101211.61
2018-12-22T20:44:49.331Z,101216.68
2018-12-22T20:47:53.528Z,101217.84
2018-12-22T20:50:57.803Z,101227.28
2018-12-22T20:54:02.007Z,101220.05
2018-12-22T20:57:06.283Z,101228.31
2018-12-22T21:00:10.576Z,101220.91
2018-12-22T21:03:14.784Z,101217.22
2018-12-22T21:09:48.159Z,101231.69
2018-12-22T21:12:52.371Z,101229.00
2018-12-22T21:15:56.749Z,101229.35
2018-12-22T21:19:00.981Z,101220.55
2018-12-22T21:22:05.463Z,101226.30
2018-12-22T21:25:09.656Z,101231.69
2018-12-22T21:28:13.874Z,101234.03
2018-12-22T21:31:18.124Z,101233.21
2018-12-22T21:34:28.336Z,101233.53
2018-12-22T21:37:28.559Z,101235.72
2018-12-22T21:40:32.743Z,101236.22
2018-12-22T21:43:36.963Z,101245.16
2018-12-22T21:46:41.302Z,101255.77
2018-12-22T21:49:45.555Z,101251.05
2018-12-22T21:52:49.757Z,101249.70
2018-12-22T21:55:54.052Z,101245.97
2018-12-22T21:58:58.264Z,101247.17
2018-12-22T22:02:02.487Z,101253.73
2018-12-22T22:05:06.923Z,101257.95
2018-12-22T22:08:11.136Z,101267.70
2018-12-22T22:11:15.376Z,101271.88
2018-12-22T22:14:19.674Z,101265.95
2018-12-22T22:17:24.208Z,101278.20
2018-12-22T22:20:28.418Z,101275.45
2018-12-22T22:23:32.662Z,101281.70
2018-12-22T22:26:36.867Z,101276.48
2018-12-22T22:29:41.110Z,101270.06
2018-12-22T22:32:45.379Z,101273.38
2018-12-22T22:35:49.580Z,101261.25
2018-12-22T22:38:53.788Z,101253.52
2018-12-22T22:41:58.067Z,101240.66
2018-12-22T22:45:02.287Z,101231.58
2018-12-22T22:48:06.575Z,101241.83
2018-12-22T22:51:10.768Z,101245.69
2018-12-22T22:54:15.054Z,101247.39
2018-12-22T22:57:19.274Z,101255.64
2018-12-22T23:00:29.458Z,101265.70
2018-12-22T23:03:33.671Z,101261.64
2018-12-22T23:06:37.901Z,101260.42
2018-12-22T23:09:42.139Z,101261.22
2018-12-22T23:12:46.347Z,101255.45
2018-12-22T23:15:50.635Z,101258.32
2018-12-22T23:18:54.845Z,101246.50
2018-12-22T23:21:59.114Z,101263.53
2018-12-22T23:25:03.395Z,101263.53
2018-12-22T23:28:07.689Z,101261.81
2018-12-22T23:31:11.889Z,101267.52
2018-12-22T23:34:16.203Z,101254.36
2018-12-22T23:37:20.452Z,101258.56
2018-12-22T23:40:24.726Z,101253.98
2018-12-22T23:43:29.056Z,101259.36
2018-12-22T23:46:33.343Z,101258.14
2018-12-22T23:49:37.567Z,101252.00
2018-12-22T23:52:41.760Z,101251.98
2018-12-22T23:55:46.015Z,101255.94
2018-12-22T23:58:50.232Z,101253.00
